sensor_id;sensor_type;location;lat;lon;timestamp;temperature;humidity
27671;DHT22;15077;49.704;9.908;2022-07-29T00:00:08;24.90;38.60
27671;DHT22;15077;49.704;9.908;2022-07-29T00:02:35;24.80;38.00
27671;DHT22;15077;49.704;9.908;2022-07-29T00:05:02;24.80;38.00
27671;DHT22;15077;49.704;9.908;2022-07-29T00:07:28;24.80;38.00
27671;DHT22;15077;49.704;9.908;2022-07-29T00:09:55;24.80;38.00
27671;DHT22;15077;49.704;9.908;2022-07-29T00:12:22;24.80;38.20
27671;DHT22;15077;49.704;9.908;2022-07-29T00:14:49;24.70;38.10
27671;DHT22;15077;49.704;9.908;2022-07-29T00:17:15;24.70;38.10
27671;DHT22;15077;49.704;9.908;2022-07-29T00:19:41;24.70;38.10
27671;DHT22;15077;49.704;9.908;2022-07-29T00:22:07;24.70;38.20
27671;DHT22;15077;49.704;9.908;2022-07-29T00:24:33;24.60;38.20
27671;DHT22;15077;49.704;9.908;2022-07-29T00:26:59;24.60;38.20
27671;DHT22;15077;49.704;9.908;2022-07-29T00:29:24;24.60;38.30
27671;DHT22;15077;49.704;9.908;2022-07-29T00:31:50;24.60;38.30
27671;DHT22;15077;49.704;9.908;2022-07-29T00:34:17;24.50;38.30
27671;DHT22;15077;49.704;9.908;2022-07-29T00:37:01;24.50;39.00
27671;DHT22;15077;49.704;9.908;2022-07-29T00:39:27;24.40;38.30
27671;DHT22;15077;49.704;9.908;2022-07-29T00:41:53;24.40;38.40
27671;DHT22;15077;49.704;9.908;2022-07-29T00:44:19;24.40;38.50
27671;DHT22;15077;49.704;9.908;2022-07-29T00:46:44;24.30;38.50
27671;DHT22;15077;49.704;9.908;2022-07-29T00:49:10;24.30;38.70
27671;DHT22;15077;49.704;9.908;2022-07-29T00:51:37;24.20;38.70
27671;DHT22;15077;49.704;9.908;2022-07-29T00:54:05;24.20;38.70
27671;DHT22;15077;49.704;9.908;2022-07-29T00:56:32;24.20;39.30
27671;DHT22;15077;49.704;9.908;2022-07-29T00:58:59;24.20;38.80
27671;DHT22;15077;49.704;9.908;2022-07-29T01:01:26;24.10;38.90
27671;DHT22;15077;49.704;9.908;2022-07-29T01:03:52;24.10;38.90
27671;DHT22;15077;49.704;9.908;2022-07-29T01:06:19;24.00;38.80
27671;DHT22;15077;49.704;9.908;2022-07-29T01:08:47;24.00;38.90
27671;DHT22;15077;49.704;9.908;2022-07-29T01:11:15;24.00;39.00
27671;DHT22;15077;49.704;9.908;2022-07-29T01:13:43;24.00;38.90
27671;DHT22;15077;49.704;9.908;2022-07-29T01:16:28;23.90;39.00
27671;DHT22;15077;49.704;9.908;2022-07-29T01:19:44;24.00;39.10
27671;DHT22;15077;49.704;9.908;2022-07-29T01:22:24;23.90;39.10
27671;DHT22;15077;49.704;9.908;2022-07-29T01:30:27;23.80;39.10
27671;DHT22;15077;49.704;9.908;2022-07-29T01:32:58;23.70;38.90
27671;DHT22;15077;49.704;9.908;2022-07-29T01:35:36;23.70;39.00
27671;DHT22;15077;49.704;9.908;2022-07-29T01:41:05;23.60;39.10
27671;DHT22;15077;49.704;9.908;2022-07-29T01:43:42;23.60;39.20
27671;DHT22;15077;49.704;9.908;2022-07-29T01:46:19;23.60;39.20
27671;DHT22;15077;49.704;9.908;2022-07-29T01:48:59;23.50;39.20
27671;DHT22;15077;49.704;9.908;2022-07-29T01:51:41;23.50;39.30
27671;DHT22;15077;49.704;9.908;2022-07-29T01:54:40;23.50;39.40
27671;DHT22;15077;49.704;9.908;2022-07-29T01:57:09;23.40;39.30
27671;DHT22;15077;49.704;9.908;2022-07-29T01:59:38;23.40;39.30
27671;DHT22;15077;49.704;9.908;2022-07-29T02:02:08;23.40;39.40
27671;DHT22;15077;49.704;9.908;2022-07-29T02:04:37;23.30;39.50
27671;DHT22;15077;49.704;9.908;2022-07-29T02:07:06;23.30;39.70
27671;DHT22;15077;49.704;9.908;2022-07-29T02:09:35;23.30;39.60
27671;DHT22;15077;49.704;9.908;2022-07-29T02:12:04;23.30;39.70
27671;DHT22;15077;49.704;9.908;2022-07-29T02:14:36;23.20;39.60
27671;DHT22;15077;49.704;9.908;2022-07-29T02:17:05;23.20;39.90
27671;DHT22;15077;49.704;9.908;2022-07-29T02:19:33;23.20;39.80
27671;DHT22;15077;49.704;9.908;2022-07-29T02:22:02;23.20;39.80
27671;DHT22;15077;49.704;9.908;2022-07-29T02:24:29;23.20;39.90
27671;DHT22;15077;49.704;9.908;2022-07-29T02:26:58;23.10;39.80
27671;DHT22;15077;49.704;9.908;2022-07-29T02:29:27;23.20;40.00
27671;DHT22;15077;49.704;9.908;2022-07-29T02:31:57;23.10;39.90
27671;DHT22;15077;49.704;9.908;2022-07-29T02:34:27;23.10;40.00
27671;DHT22;15077;49.704;9.908;2022-07-29T02:36:55;23.10;39.90
27671;DHT22;15077;49.704;9.908;2022-07-29T02:39:22;23.10;40.10
27671;DHT22;15077;49.704;9.908;2022-07-29T02:41:55;23.10;40.10
27671;DHT22;15077;49.704;9.908;2022-07-29T02:44:28;23.00;39.90
27671;DHT22;15077;49.704;9.908;2022-07-29T02:52:44;23.00;40.20
27671;DHT22;15077;49.704;9.908;2022-07-29T02:58:10;22.90;40.30
27671;DHT22;15077;49.704;9.908;2022-07-29T03:00:41;22.90;40.20
27671;DHT22;15077;49.704;9.908;2022-07-29T03:03:13;22.80;40.10
27671;DHT22;15077;49.704;9.908;2022-07-29T03:05:41;22.80;40.30
27671;DHT22;15077;49.704;9.908;2022-07-29T03:08:09;22.80;40.30
27671;DHT22;15077;49.704;9.908;2022-07-29T03:10:43;22.80;40.40
27671;DHT22;15077;49.704;9.908;2022-07-29T03:13:11;22.80;40.30
27671;DHT22;15077;49.704;9.908;2022-07-29T03:15:38;22.80;40.40
27671;DHT22;15077;49.704;9.908;2022-07-29T03:18:05;22.70;40.40
27671;DHT22;15077;49.704;9.908;2022-07-29T03:20:32;22.70;40.50
27671;DHT22;15077;49.704;9.908;2022-07-29T03:22:58;22.70;40.40
27671;DHT22;15077;49.704;9.908;2022-07-29T03:25:24;22.70;40.40
27671;DHT22;15077;49.704;9.908;2022-07-29T03:27:50;22.70;40.50
27671;DHT22;15077;49.704;9.908;2022-07-29T03:30:16;22.60;40.50
27671;DHT22;15077;49.704;9.908;2022-07-29T03:32:42;22.60;40.40
27671;DHT22;15077;49.704;9.908;2022-07-29T03:35:08;22.60;40.40
27671;DHT22;15077;49.704;9.908;2022-07-29T03:37:34;22.60;40.50
27671;DHT22;15077;49.704;9.908;2022-07-29T03:40:06;22.60;40.50
27671;DHT22;15077;49.704;9.908;2022-07-29T03:42:35;22.60;40.60
27671;DHT22;15077;49.704;9.908;2022-07-29T03:45:06;22.60;40.40
27671;DHT22;15077;49.704;9.908;2022-07-29T03:47:37;22.60;40.40
27671;DHT22;15077;49.704;9.908;2022-07-29T03:50:06;22.60;40.50
27671;DHT22;15077;49.704;9.908;2022-07-29T03:52:36;22.50;40.50
27671;DHT22;15077;49.704;9.908;2022-07-29T03:55:03;22.50;40.60
27671;DHT22;15077;49.704;9.908;2022-07-29T03:57:30;22.50;40.70
27671;DHT22;15077;49.704;9.908;2022-07-29T03:59:57;22.40;40.70
27671;DHT22;15077;49.704;9.908;2022-07-29T04:02:25;22.40;40.80
27671;DHT22;15077;49.704;9.908;2022-07-29T04:04:52;22.40;40.80
27671;DHT22;15077;49.704;9.908;2022-07-29T04:07:18;22.40;40.90
27671;DHT22;15077;49.704;9.908;2022-07-29T04:09:44;22.40;41.00
27671;DHT22;15077;49.704;9.908;2022-07-29T04:12:10;22.30;41.00
27671;DHT22;15077;49.704;9.908;2022-07-29T04:14:36;22.30;40.90
27671;DHT22;15077;49.704;9.908;2022-07-29T04:17:03;22.30;40.90
27671;DHT22;15077;49.704;9.908;2022-07-29T04:19:30;22.30;40.90
27671;DHT22;15077;49.704;9.908;2022-07-29T04:21:56;22.30;41.00
27671;DHT22;15077;49.704;9.908;2022-07-29T04:24:23;22.30;41.00
27671;DHT22;15077;49.704;9.908;2022-07-29T04:26:49;22.30;41.10
27671;DHT22;15077;49.704;9.908;2022-07-29T04:29:15;22.30;41.10
27671;DHT22;15077;49.704;9.908;2022-07-29T04:31:41;22.30;41.10
27671;DHT22;15077;49.704;9.908;2022-07-29T04:34:07;22.30;41.10
27671;DHT22;15077;49.704;9.908;2022-07-29T04:36:34;22.30;41.10
27671;DHT22;15077;49.704;9.908;2022-07-29T04:39:00;22.30;41.10
27671;DHT22;15077;49.704;9.908;2022-07-29T04:41:29;22.30;41.10
27671;DHT22;15077;49.704;9.908;2022-07-29T04:43:56;22.30;41.20
27671;DHT22;15077;49.704;9.908;2022-07-29T04:46:22;22.30;41.30
27671;DHT22;15077;49.704;9.908;2022-07-29T04:48:48;22.30;41.30
27671;DHT22;15077;49.704;9.908;2022-07-29T04:51:15;22.30;41.30
27671;DHT22;15077;49.704;9.908;2022-07-29T04:53:42;22.30;41.30
27671;DHT22;15077;49.704;9.908;2022-07-29T04:56:08;22.30;41.50
27671;DHT22;15077;49.704;9.908;2022-07-29T04:58:34;22.30;41.40
27671;DHT22;15077;49.704;9.908;2022-07-29T05:01:01;22.30;41.50
27671;DHT22;15077;49.704;9.908;2022-07-29T05:03:27;22.30;41.40
27671;DHT22;15077;49.704;9.908;2022-07-29T05:05:53;22.30;41.50
27671;DHT22;15077;49.704;9.908;2022-07-29T05:08:19;22.30;41.60
27671;DHT22;15077;49.704;9.908;2022-07-29T05:10:45;22.40;41.60
27671;DHT22;15077;49.704;9.908;2022-07-29T05:13:11;22.40;41.60
27671;DHT22;15077;49.704;9.908;2022-07-29T05:15:37;22.40;41.80
27671;DHT22;15077;49.704;9.908;2022-07-29T05:18:04;22.40;41.70
27671;DHT22;15077;49.704;9.908;2022-07-29T05:20:30;22.40;41.70
27671;DHT22;15077;49.704;9.908;2022-07-29T05:22:58;22.40;41.60
27671;DHT22;15077;49.704;9.908;2022-07-29T05:25:26;22.50;41.70
27671;DHT22;15077;49.704;9.908;2022-07-29T05:27:53;22.50;41.60
27671;DHT22;15077;49.704;9.908;2022-07-29T05:30:19;22.50;41.70
27671;DHT22;15077;49.704;9.908;2022-07-29T05:32:46;22.50;41.80
27671;DHT22;15077;49.704;9.908;2022-07-29T05:35:13;22.60;41.90
27671;DHT22;15077;49.704;9.908;2022-07-29T05:37:40;22.60;41.90
27671;DHT22;15077;49.704;9.908;2022-07-29T05:40:07;22.60;41.80
27671;DHT22;15077;49.704;9.908;2022-07-29T05:42:34;22.60;41.60
27671;DHT22;15077;49.704;9.908;2022-07-29T05:45:00;22.70;41.70
27671;DHT22;15077;49.704;9.908;2022-07-29T05:47:26;22.60;41.70
27671;DHT22;15077;49.704;9.908;2022-07-29T05:49:52;22.60;42.00
27671;DHT22;15077;49.704;9.908;2022-07-29T05:52:19;22.70;41.80
27671;DHT22;15077;49.704;9.908;2022-07-29T05:54:45;22.70;42.00
27671;DHT22;15077;49.704;9.908;2022-07-29T05:57:22;22.80;42.20
27671;DHT22;15077;49.704;9.908;2022-07-29T05:59:49;22.80;42.20
27671;DHT22;15077;49.704;9.908;2022-07-29T06:02:16;22.90;42.10
27671;DHT22;15077;49.704;9.908;2022-07-29T06:04:43;22.90;42.20
27671;DHT22;15077;49.704;9.908;2022-07-29T06:07:09;22.90;42.30
27671;DHT22;15077;49.704;9.908;2022-07-29T06:09:35;22.90;42.30
27671;DHT22;15077;49.704;9.908;2022-07-29T06:12:01;22.90;42.20
27671;DHT22;15077;49.704;9.908;2022-07-29T06:14:27;23.00;42.40
27671;DHT22;15077;49.704;9.908;2022-07-29T06:16:53;23.00;42.30
27671;DHT22;15077;49.704;9.908;2022-07-29T06:19:20;23.10;42.30
27671;DHT22;15077;49.704;9.908;2022-07-29T06:21:47;23.10;42.30
27671;DHT22;15077;49.704;9.908;2022-07-29T06:24:14;23.20;42.50
27671;DHT22;15077;49.704;9.908;2022-07-29T06:26:41;23.30;42.60
27671;DHT22;15077;49.704;9.908;2022-07-29T06:29:08;23.30;42.70
27671;DHT22;15077;49.704;9.908;2022-07-29T06:31:36;23.40;42.60
27671;DHT22;15077;49.704;9.908;2022-07-29T06:34:02;23.40;42.60
27671;DHT22;15077;49.704;9.908;2022-07-29T06:36:28;23.50;42.70
27671;DHT22;15077;49.704;9.908;2022-07-29T06:38:54;23.60;42.80
27671;DHT22;15077;49.704;9.908;2022-07-29T06:41:20;23.70;42.70
27671;DHT22;15077;49.704;9.908;2022-07-29T06:43:46;23.70;42.50
27671;DHT22;15077;49.704;9.908;2022-07-29T06:46:14;23.80;42.50
27671;DHT22;15077;49.704;9.908;2022-07-29T06:48:44;23.80;42.50
27671;DHT22;15077;49.704;9.908;2022-07-29T06:51:11;23.90;42.50
27671;DHT22;15077;49.704;9.908;2022-07-29T06:53:38;24.00;42.50
27671;DHT22;15077;49.704;9.908;2022-07-29T06:56:05;24.10;42.40
27671;DHT22;15077;49.704;9.908;2022-07-29T06:58:34;24.10;42.50
27671;DHT22;15077;49.704;9.908;2022-07-29T07:01:02;24.10;42.20
27671;DHT22;15077;49.704;9.908;2022-07-29T07:03:30;24.20;42.30
27671;DHT22;15077;49.704;9.908;2022-07-29T07:05:56;24.20;42.30
27671;DHT22;15077;49.704;9.908;2022-07-29T07:08:22;24.30;42.40
27671;DHT22;15077;49.704;9.908;2022-07-29T07:10:49;24.30;42.40
27671;DHT22;15077;49.704;9.908;2022-07-29T07:13:15;24.40;42.60
27671;DHT22;15077;49.704;9.908;2022-07-29T07:15:43;24.50;42.70
27671;DHT22;15077;49.704;9.908;2022-07-29T07:18:09;24.50;42.60
27671;DHT22;15077;49.704;9.908;2022-07-29T07:20:36;24.60;42.50
27671;DHT22;15077;49.704;9.908;2022-07-29T07:23:02;24.70;42.50
27671;DHT22;15077;49.704;9.908;2022-07-29T07:25:29;24.80;42.40
27671;DHT22;15077;49.704;9.908;2022-07-29T07:27:55;24.90;42.50
27671;DHT22;15077;49.704;9.908;2022-07-29T07:30:21;25.00;42.50
27671;DHT22;15077;49.704;9.908;2022-07-29T07:32:47;25.00;42.40
27671;DHT22;15077;49.704;9.908;2022-07-29T07:35:13;25.10;42.40
27671;DHT22;15077;49.704;9.908;2022-07-29T07:37:39;25.20;42.30
27671;DHT22;15077;49.704;9.908;2022-07-29T07:40:10;25.30;43.00
27671;DHT22;15077;49.704;9.908;2022-07-29T07:42:40;25.40;42.40
27671;DHT22;15077;49.704;9.908;2022-07-29T07:45:07;25.40;42.40
27671;DHT22;15077;49.704;9.908;2022-07-29T07:47:35;25.50;42.30
27671;DHT22;15077;49.704;9.908;2022-07-29T07:50:03;25.60;42.30
27671;DHT22;15077;49.704;9.908;2022-07-29T07:52:31;25.70;42.20
27671;DHT22;15077;49.704;9.908;2022-07-29T07:54:57;25.80;42.30
27671;DHT22;15077;49.704;9.908;2022-07-29T07:57:23;25.90;42.20
27671;DHT22;15077;49.704;9.908;2022-07-29T07:59:49;26.00;42.30
27671;DHT22;15077;49.704;9.908;2022-07-29T08:02:14;26.10;42.30
27671;DHT22;15077;49.704;9.908;2022-07-29T08:04:40;26.20;42.30
27671;DHT22;15077;49.704;9.908;2022-07-29T08:07:07;26.30;42.20
27671;DHT22;15077;49.704;9.908;2022-07-29T08:09:34;26.40;42.30
27671;DHT22;15077;49.704;9.908;2022-07-29T08:12:00;26.50;42.40
27671;DHT22;15077;49.704;9.908;2022-07-29T08:14:31;26.60;42.30
27671;DHT22;15077;49.704;9.908;2022-07-29T08:16:57;26.70;42.20
27671;DHT22;15077;49.704;9.908;2022-07-29T08:19:23;26.80;42.10
27671;DHT22;15077;49.704;9.908;2022-07-29T08:21:49;26.90;42.10
27671;DHT22;15077;49.704;9.908;2022-07-29T08:24:15;26.90;42.00
27671;DHT22;15077;49.704;9.908;2022-07-29T08:27:19;27.00;41.80
27671;DHT22;15077;49.704;9.908;2022-07-29T08:29:45;27.10;41.70
27671;DHT22;15077;49.704;9.908;2022-07-29T08:32:11;27.20;41.70
27671;DHT22;15077;49.704;9.908;2022-07-29T08:34:38;27.20;41.60
27671;DHT22;15077;49.704;9.908;2022-07-29T08:37:04;27.30;41.60
27671;DHT22;15077;49.704;9.908;2022-07-29T08:39:29;27.30;41.40
27671;DHT22;15077;49.704;9.908;2022-07-29T08:41:55;27.30;41.20
27671;DHT22;15077;49.704;9.908;2022-07-29T08:44:21;27.30;41.30
27671;DHT22;15077;49.704;9.908;2022-07-29T08:46:48;27.40;42.00
27671;DHT22;15077;49.704;9.908;2022-07-29T08:49:16;27.40;41.20
27671;DHT22;15077;49.704;9.908;2022-07-29T08:51:43;27.40;41.30
27671;DHT22;15077;49.704;9.908;2022-07-29T08:54:10;27.40;41.20
27671;DHT22;15077;49.704;9.908;2022-07-29T08:56:38;27.40;41.30
27671;DHT22;15077;49.704;9.908;2022-07-29T08:59:05;27.50;41.50
27671;DHT22;15077;49.704;9.908;2022-07-29T09:01:33;27.50;41.60
27671;DHT22;15077;49.704;9.908;2022-07-29T09:04:03;27.60;41.60
27671;DHT22;15077;49.704;9.908;2022-07-29T09:06:34;27.60;41.50
27671;DHT22;15077;49.704;9.908;2022-07-29T09:09:02;27.70;41.50
27671;DHT22;15077;49.704;9.908;2022-07-29T09:11:29;27.80;41.60
27671;DHT22;15077;49.704;9.908;2022-07-29T09:13:57;27.80;41.40
27671;DHT22;15077;49.704;9.908;2022-07-29T09:16:23;27.80;41.40
27671;DHT22;15077;49.704;9.908;2022-07-29T09:18:49;27.90;41.30
27671;DHT22;15077;49.704;9.908;2022-07-29T09:21:16;27.90;41.20
27671;DHT22;15077;49.704;9.908;2022-07-29T09:24:10;27.90;41.30
27671;DHT22;15077;49.704;9.908;2022-07-29T09:26:42;28.00;41.50
27671;DHT22;15077;49.704;9.908;2022-07-29T09:29:20;28.10;41.50
27671;DHT22;15077;49.704;9.908;2022-07-29T09:31:49;28.20;41.50
27671;DHT22;15077;49.704;9.908;2022-07-29T09:34:25;28.40;41.60
27671;DHT22;15077;49.704;9.908;2022-07-29T09:36:54;28.50;41.60
27671;DHT22;15077;49.704;9.908;2022-07-29T09:41:57;28.90;41.20
27671;DHT22;15077;49.704;9.908;2022-07-29T09:44:25;29.00;40.90
27671;DHT22;15077;49.704;9.908;2022-07-29T09:46:59;29.10;40.70
27671;DHT22;15077;49.704;9.908;2022-07-29T09:52:17;29.30;40.20
27671;DHT22;15077;49.704;9.908;2022-07-29T09:54:44;29.40;40.30
27671;DHT22;15077;49.704;9.908;2022-07-29T09:57:24;29.40;40.50
27671;DHT22;15077;49.704;9.908;2022-07-29T09:59:59;29.40;40.40
27671;DHT22;15077;49.704;9.908;2022-07-29T10:02:31;29.50;40.30
27671;DHT22;15077;49.704;9.908;2022-07-29T10:04:59;29.60;40.30
27671;DHT22;15077;49.704;9.908;2022-07-29T10:07:50;29.60;40.20
27671;DHT22;15077;49.704;9.908;2022-07-29T10:10:26;29.70;40.20
27671;DHT22;15077;49.704;9.908;2022-07-29T10:12:58;29.80;40.10
27671;DHT22;15077;49.704;9.908;2022-07-29T10:15:31;29.90;40.30
27671;DHT22;15077;49.704;9.908;2022-07-29T10:17:59;29.90;40.10
27671;DHT22;15077;49.704;9.908;2022-07-29T10:20:27;30.00;40.10
27671;DHT22;15077;49.704;9.908;2022-07-29T10:22:53;30.10;39.90
27671;DHT22;15077;49.704;9.908;2022-07-29T10:25:21;30.20;39.80
27671;DHT22;15077;49.704;9.908;2022-07-29T10:27:49;30.20;39.60
27671;DHT22;15077;49.704;9.908;2022-07-29T10:30:19;30.20;39.60
27671;DHT22;15077;49.704;9.908;2022-07-29T10:36:02;30.30;39.40
27671;DHT22;15077;49.704;9.908;2022-07-29T10:46:27;30.30;39.30
27671;DHT22;15077;49.704;9.908;2022-07-29T10:49:16;30.20;39.30
27671;DHT22;15077;49.704;9.908;2022-07-29T10:59:48;30.30;39.60
27671;DHT22;15077;49.704;9.908;2022-07-29T11:05:14;30.30;39.60
27671;DHT22;15077;49.704;9.908;2022-07-29T11:10:39;30.50;39.70
27671;DHT22;15077;49.704;9.908;2022-07-29T11:13:05;30.50;39.50
27671;DHT22;15077;49.704;9.908;2022-07-29T11:15:54;30.50;39.50
27671;DHT22;15077;49.704;9.908;2022-07-29T11:18:21;30.60;39.40
27671;DHT22;15077;49.704;9.908;2022-07-29T11:20:50;30.60;39.30
27671;DHT22;15077;49.704;9.908;2022-07-29T11:29:01;30.70;38.50
27671;DHT22;15077;49.704;9.908;2022-07-29T11:34:23;30.90;38.60
27671;DHT22;15077;49.704;9.908;2022-07-29T11:39:36;31.00;38.90
27671;DHT22;15077;49.704;9.908;2022-07-29T11:45:06;31.30;38.70
27671;DHT22;15077;49.704;9.908;2022-07-29T11:47:46;31.40;38.40
27671;DHT22;15077;49.704;9.908;2022-07-29T11:53:03;31.60;38.00
27671;DHT22;15077;49.704;9.908;2022-07-29T11:55:40;31.70;37.90
27671;DHT22;15077;49.704;9.908;2022-07-29T11:58:07;31.70;37.60
27671;DHT22;15077;49.704;9.908;2022-07-29T12:00:36;31.70;37.50
27671;DHT22;15077;49.704;9.908;2022-07-29T12:03:06;31.70;37.40
27671;DHT22;15077;49.704;9.908;2022-07-29T12:05:38;31.60;37.20
27671;DHT22;15077;49.704;9.908;2022-07-29T12:08:06;31.60;37.20
27671;DHT22;15077;49.704;9.908;2022-07-29T12:10:33;31.50;37.30
27671;DHT22;15077;49.704;9.908;2022-07-29T12:12:59;31.50;37.20
27671;DHT22;15077;49.704;9.908;2022-07-29T12:15:26;31.40;37.70
27671;DHT22;15077;49.704;9.908;2022-07-29T12:17:52;31.40;37.70
27671;DHT22;15077;49.704;9.908;2022-07-29T12:20:29;31.50;38.00
27671;DHT22;15077;49.704;9.908;2022-07-29T12:22:56;31.60;37.40
27671;DHT22;15077;49.704;9.908;2022-07-29T12:25:23;31.60;37.40
27671;DHT22;15077;49.704;9.908;2022-07-29T12:28:00;31.60;37.50
27671;DHT22;15077;49.704;9.908;2022-07-29T12:30:48;31.70;37.50
27671;DHT22;15077;49.704;9.908;2022-07-29T12:33:26;31.70;37.60
27671;DHT22;15077;49.704;9.908;2022-07-29T12:35:56;31.80;37.10
27671;DHT22;15077;49.704;9.908;2022-07-29T12:38:24;31.90;37.20
27671;DHT22;15077;49.704;9.908;2022-07-29T12:40:52;32.00;37.10
27671;DHT22;15077;49.704;9.908;2022-07-29T12:43:21;32.00;36.80
27671;DHT22;15077;49.704;9.908;2022-07-29T12:45:53;32.10;36.90
27671;DHT22;15077;49.704;9.908;2022-07-29T12:48:39;32.10;36.70
27671;DHT22;15077;49.704;9.908;2022-07-29T12:51:08;32.20;36.50
27671;DHT22;15077;49.704;9.908;2022-07-29T12:53:37;32.10;36.30
27671;DHT22;15077;49.704;9.908;2022-07-29T12:56:04;32.10;36.30
27671;DHT22;15077;49.704;9.908;2022-07-29T12:58:39;32.00;36.30
27671;DHT22;15077;49.704;9.908;2022-07-29T13:01:17;32.00;36.40
27671;DHT22;15077;49.704;9.908;2022-07-29T13:06:31;31.90;36.40
27671;DHT22;15077;49.704;9.908;2022-07-29T13:11:43;31.90;36.60
27671;DHT22;15077;49.704;9.908;2022-07-29T13:14:11;31.90;36.50
27671;DHT22;15077;49.704;9.908;2022-07-29T13:17:18;31.90;36.60
27671;DHT22;15077;49.704;9.908;2022-07-29T13:20:04;31.80;36.70
27671;DHT22;15077;49.704;9.908;2022-07-29T13:22:31;31.80;36.50
27671;DHT22;15077;49.704;9.908;2022-07-29T13:24:59;31.70;36.60
27671;DHT22;15077;49.704;9.908;2022-07-29T13:27:31;31.70;36.60
27671;DHT22;15077;49.704;9.908;2022-07-29T13:29:59;31.70;36.50
27671;DHT22;15077;49.704;9.908;2022-07-29T13:32:31;31.70;36.50
27671;DHT22;15077;49.704;9.908;2022-07-29T13:35:01;31.60;36.40
27671;DHT22;15077;49.704;9.908;2022-07-29T13:37:28;31.60;36.60
27671;DHT22;15077;49.704;9.908;2022-07-29T13:39:55;31.60;37.30
27671;DHT22;15077;49.704;9.908;2022-07-29T13:42:22;31.40;38.40
27671;DHT22;15077;49.704;9.908;2022-07-29T13:44:48;31.30;38.90
27671;DHT22;15077;49.704;9.908;2022-07-29T13:47:17;31.20;39.50
27671;DHT22;15077;49.704;9.908;2022-07-29T13:49:43;31.00;39.90
27671;DHT22;15077;49.704;9.908;2022-07-29T13:52:09;30.70;40.90
27671;DHT22;15077;49.704;9.908;2022-07-29T13:54:36;30.50;41.40
27671;DHT22;15077;49.704;9.908;2022-07-29T13:57:04;30.30;42.80
27671;DHT22;15077;49.704;9.908;2022-07-29T13:59:31;30.10;43.60
27671;DHT22;15077;49.704;9.908;2022-07-29T14:01:57;29.80;44.00
27671;DHT22;15077;49.704;9.908;2022-07-29T14:04:22;29.60;43.50
27671;DHT22;15077;49.704;9.908;2022-07-29T14:06:52;29.40;43.80
27671;DHT22;15077;49.704;9.908;2022-07-29T14:09:18;29.20;44.20
27671;DHT22;15077;49.704;9.908;2022-07-29T14:11:43;29.10;44.00
27671;DHT22;15077;49.704;9.908;2022-07-29T14:14:11;29.00;44.40
27671;DHT22;15077;49.704;9.908;2022-07-29T14:16:37;29.00;44.80
27671;DHT22;15077;49.704;9.908;2022-07-29T14:19:03;29.00;45.40
27671;DHT22;15077;49.704;9.908;2022-07-29T14:21:29;29.00;45.40
27671;DHT22;15077;49.704;9.908;2022-07-29T14:23:55;29.00;45.60
27671;DHT22;15077;49.704;9.908;2022-07-29T14:26:21;29.00;45.80
27671;DHT22;15077;49.704;9.908;2022-07-29T14:28:48;29.00;46.50
27671;DHT22;15077;49.704;9.908;2022-07-29T14:31:14;29.00;46.30
27671;DHT22;15077;49.704;9.908;2022-07-29T14:33:40;28.90;46.30
27671;DHT22;15077;49.704;9.908;2022-07-29T14:36:06;28.90;46.30
27671;DHT22;15077;49.704;9.908;2022-07-29T14:38:33;28.80;46.10
27671;DHT22;15077;49.704;9.908;2022-07-29T14:40:58;28.80;46.10
27671;DHT22;15077;49.704;9.908;2022-07-29T14:43:24;28.70;46.20
27671;DHT22;15077;49.704;9.908;2022-07-29T14:45:50;28.70;46.30
27671;DHT22;15077;49.704;9.908;2022-07-29T14:48:15;28.60;46.70
27671;DHT22;15077;49.704;9.908;2022-07-29T14:50:41;28.60;46.50
27671;DHT22;15077;49.704;9.908;2022-07-29T14:53:07;28.60;46.50
27671;DHT22;15077;49.704;9.908;2022-07-29T14:55:33;28.50;46.70
27671;DHT22;15077;49.704;9.908;2022-07-29T14:57:58;28.50;46.50
27671;DHT22;15077;49.704;9.908;2022-07-29T15:00:25;28.40;46.80
27671;DHT22;15077;49.704;9.908;2022-07-29T15:02:51;28.40;46.90
27671;DHT22;15077;49.704;9.908;2022-07-29T15:05:17;28.30;47.00
27671;DHT22;15077;49.704;9.908;2022-07-29T15:07:43;28.20;47.30
27671;DHT22;15077;49.704;9.908;2022-07-29T15:10:09;28.10;47.50
27671;DHT22;15077;49.704;9.908;2022-07-29T15:12:35;28.00;48.10
27671;DHT22;15077;49.704;9.908;2022-07-29T15:15:01;27.90;49.40
27671;DHT22;15077;49.704;9.908;2022-07-29T15:17:26;27.80;50.00
27671;DHT22;15077;49.704;9.908;2022-07-29T15:19:52;27.60;51.00
27671;DHT22;15077;49.704;9.908;2022-07-29T15:22:18;27.40;51.40
27671;DHT22;15077;49.704;9.908;2022-07-29T15:24:45;27.30;51.20
27671;DHT22;15077;49.704;9.908;2022-07-29T15:27:11;27.00;51.10
27671;DHT22;15077;49.704;9.908;2022-07-29T15:29:42;26.90;51.00
27671;DHT22;15077;49.704;9.908;2022-07-29T15:32:09;26.70;51.30
27671;DHT22;15077;49.704;9.908;2022-07-29T15:34:36;26.60;51.10
27671;DHT22;15077;49.704;9.908;2022-07-29T15:37:04;26.50;50.90
27671;DHT22;15077;49.704;9.908;2022-07-29T15:39:30;26.40;51.20
27671;DHT22;15077;49.704;9.908;2022-07-29T15:41:57;26.30;51.70
27671;DHT22;15077;49.704;9.908;2022-07-29T15:44:25;26.30;51.80
27671;DHT22;15077;49.704;9.908;2022-07-29T15:46:51;26.20;52.10
27671;DHT22;15077;49.704;9.908;2022-07-29T15:49:39;26.10;51.90
27671;DHT22;15077;49.704;9.908;2022-07-29T15:52:07;26.00;52.40
27671;DHT22;15077;49.704;9.908;2022-07-29T15:54:36;26.00;52.00
27671;DHT22;15077;49.704;9.908;2022-07-29T15:57:04;25.90;51.90
27671;DHT22;15077;49.704;9.908;2022-07-29T15:59:31;25.90;51.90
27671;DHT22;15077;49.704;9.908;2022-07-29T16:01:57;25.90;52.00
27671;DHT22;15077;49.704;9.908;2022-07-29T16:04:23;25.90;52.10
27671;DHT22;15077;49.704;9.908;2022-07-29T16:06:49;25.90;52.10
27671;DHT22;15077;49.704;9.908;2022-07-29T16:09:16;26.00;52.20
27671;DHT22;15077;49.704;9.908;2022-07-29T16:11:43;26.00;52.10
27671;DHT22;15077;49.704;9.908;2022-07-29T16:14:10;26.00;51.90
27671;DHT22;15077;49.704;9.908;2022-07-29T16:16:36;26.00;51.90
27671;DHT22;15077;49.704;9.908;2022-07-29T16:19:03;26.00;52.30
27671;DHT22;15077;49.704;9.908;2022-07-29T16:21:32;25.90;52.30
27671;DHT22;15077;49.704;9.908;2022-07-29T16:24:00;25.90;52.50
27671;DHT22;15077;49.704;9.908;2022-07-29T16:26:27;25.90;52.60
27671;DHT22;15077;49.704;9.908;2022-07-29T16:28:53;25.90;52.90
27671;DHT22;15077;49.704;9.908;2022-07-29T16:31:19;25.80;52.80
27671;DHT22;15077;49.704;9.908;2022-07-29T16:33:48;25.80;54.00
27671;DHT22;15077;49.704;9.908;2022-07-29T16:36:15;25.70;53.00
27671;DHT22;15077;49.704;9.908;2022-07-29T16:38:41;25.60;53.70
27671;DHT22;15077;49.704;9.908;2022-07-29T16:41:07;25.60;53.90
27671;DHT22;15077;49.704;9.908;2022-07-29T16:43:33;25.60;54.30
27671;DHT22;15077;49.704;9.908;2022-07-29T16:45:59;25.60;54.10
27671;DHT22;15077;49.704;9.908;2022-07-29T16:48:25;25.50;53.70